sensor_id;sensor_type;location;lat;lon;timestamp;pressure;altitude;pressure_sealevel;temperature;humidity
64336;BME280;50672;53.362;-6.240;2023-04-06T00:00:51;101409.97;;;11.01;67.82
64336;BME280;50672;53.362;-6.240;2023-04-06T00:03:18;101405.56;;;11.00;67.77
64336;BME280;50672;53.362;-6.240;2023-04-06T00:05:46;101394.97;;;10.97;67.55
64336;BME280;50672;53.362;-6.240;2023-04-06T00:08:13;101393.28;;;10.96;67.55
64336;BME280;50672;53.362;-6.240;2023-04-06T00:10:40;101395.97;;;10.87;67.76
64336;BME280;50672;53.362;-6.240;2023-04-06T00:13:07;101396.91;;;10.78;67.69
64336;BME280;50672;53.362;-6.240;2023-04-06T00:15:34;101385.97;;;10.70;67.45
64336;BME280;50672;53.362;-6.240;2023-04-06T00:18:02;101391.34;;;10.62;67.54
64336;BME280;50672;53.362;-6.240;2023-04-06T00:20:29;101389.63;;;10.52;67.55
64336;BME280;50672;53.362;-6.240;2023-04-06T00:22:56;101389.72;;;10.42;67.83
64336;BME280;50672;53.362;-6.240;2023-04-06T00:25:22;101385.75;;;10.37;67.53
64336;BME280;50672;53.362;-6.240;2023-04-06T00:27:49;101386.34;;;10.31;67.74
64336;BME280;50672;53.362;-6.240;2023-04-06T00:30:16;101379.34;;;10.28;67.68
64336;BME280;50672;53.362;-6.240;2023-04-06T00:32:43;101377.78;;;10.25;67.90
64336;BME280;50672;53.362;-6.240;2023-04-06T00:35:10;101367.94;;;10.24;68.14
64336;BME280;50672;53.362;-6.240;2023-04-06T00:37:37;101367.94;;;10.24;68.11
64336;BME280;50672;53.362;-6.240;2023-04-06T00:40:04;101369.78;;;10.24;68.21
64336;BME280;50672;53.362;-6.240;2023-04-06T00:42:31;101369.78;;;10.24;68.04
64336;BME280;50672;53.362;-6.240;2023-04-06T00:45:00;101369.97;;;10.22;68.13
64336;BME280;50672;53.362;-6.240;2023-04-06T00:47:27;101368.13;;;10.23;68.12
64336;BME280;50672;53.362;-6.240;2023-04-06T00:49:54;101372.84;;;10.21;68.31
64336;BME280;50672;53.362;-6.240;2023-04-06T00:52:21;101385.75;;;10.19;68.45
64336;BME280;50672;53.362;-6.240;2023-04-06T00:54:49;101383.88;;;10.19;68.42
64336;BME280;50672;53.362;-6.240;2023-04-06T00:57:16;101384.19;;;10.16;68.41
64336;BME280;50672;53.362;-6.240;2023-04-06T00:59:43;101386.22;;;10.14;68.41
64336;BME280;50672;53.362;-6.240;2023-04-06T01:02:11;101380.09;;;10.12;68.48
64336;BME280;50672;53.362;-6.240;2023-04-06T01:04:38;101373.78;;;10.12;68.15
64336;BME280;50672;53.362;-6.240;2023-04-06T01:07:05;101373.09;;;10.09;68.36
64336;BME280;50672;53.362;-6.240;2023-04-06T01:09:31;101383.13;;;10.09;68.27
64336;BME280;50672;53.362;-6.240;2023-04-06T01:11:58;101397.72;;;10.08;68.36
64336;BME280;50672;53.362;-6.240;2023-04-06T01:14:25;101391.44;;;10.07;68.45
64336;BME280;50672;53.362;-6.240;2023-04-06T01:16:52;101391.28;;;10.09;68.44
64336;BME280;50672;53.362;-6.240;2023-04-06T01:19:19;101396.56;;;10.11;68.43
64336;BME280;50672;53.362;-6.240;2023-04-06T01:21:47;101392.81;;;10.12;68.25
64336;BME280;50672;53.362;-6.240;2023-04-06T01:24:16;101387.25;;;10.13;68.28
64336;BME280;50672;53.362;-6.240;2023-04-06T01:26:43;101397.97;;;10.15;68.22
64336;BME280;50672;53.362;-6.240;2023-04-06T01:29:10;101391.66;;;10.14;68.17
64336;BME280;50672;53.362;-6.240;2023-04-06T01:31:37;101394.53;;;10.13;68.20
64336;BME280;50672;53.362;-6.240;2023-04-06T01:34:04;101386.53;;;10.11;67.97
64336;BME280;50672;53.362;-6.240;2023-04-06T01:36:31;101383.13;;;10.09;67.87
64336;BME280;50672;53.362;-6.240;2023-04-06T01:38:58;101390.56;;;10.07;67.89
64336;BME280;50672;53.362;-6.240;2023-04-06T01:41:25;101391.56;;;10.06;67.91
64336;BME280;50672;53.362;-6.240;2023-04-06T01:43:53;101377.97;;;10.06;67.84
64336;BME280;50672;53.362;-6.240;2023-04-06T01:46:21;101383.41;;;10.06;67.82
64336;BME280;50672;53.362;-6.240;2023-04-06T01:48:48;101380.84;;;10.04;67.66
64336;BME280;50672;53.362;-6.240;2023-04-06T01:51:15;101370.84;;;10.05;67.57
64336;BME280;50672;53.362;-6.240;2023-04-06T01:53:42;101371.69;;;10.05;67.74
64336;BME280;50672;53.362;-6.240;2023-04-06T01:56:09;101370.69;;;10.06;67.64
64336;BME280;50672;53.362;-6.240;2023-04-06T01:58:36;101363.53;;;10.05;67.92
64336;BME280;50672;53.362;-6.240;2023-04-06T02:01:02;101371.69;;;10.05;67.75
64336;BME280;50672;53.362;-6.240;2023-04-06T02:03:29;101363.69;;;10.04;67.67
64336;BME280;50672;53.362;-6.240;2023-04-06T02:05:57;101370.84;;;10.05;67.61
64336;BME280;50672;53.362;-6.240;2023-04-06T02:08:23;101366.56;;;10.02;67.68
64336;BME280;50672;53.362;-6.240;2023-04-06T02:10:50;101362.97;;;10.02;67.38
64336;BME280;50672;53.362;-6.240;2023-04-06T02:13:18;101369.44;;;10.01;67.75
64336;BME280;50672;53.362;-6.240;2023-04-06T02:15:44;101371.47;;;9.99;67.73
64336;BME280;50672;53.362;-6.240;2023-04-06T02:18:11;101370.78;;;9.97;67.82
64336;BME280;50672;53.362;-6.240;2023-04-06T02:20:38;101369.78;;;9.98;67.70
64336;BME280;50672;53.362;-6.240;2023-04-06T02:23:04;101370.78;;;9.97;67.76
64336;BME280;50672;53.362;-6.240;2023-04-06T02:25:31;101363.78;;;9.94;67.53
64336;BME280;50672;53.362;-6.240;2023-04-06T02:27:59;101368.38;;;9.94;67.71
64336;BME280;50672;53.362;-6.240;2023-04-06T02:30:25;101370.22;;;9.93;67.82
64336;BME280;50672;53.362;-6.240;2023-04-06T02:32:52;101364.94;;;9.91;67.99
64336;BME280;50672;53.362;-6.240;2023-04-06T02:35:19;101363.94;;;9.92;68.20
64336;BME280;50672;53.362;-6.240;2023-04-06T02:37:46;101366.66;;;9.92;67.95
64336;BME280;50672;53.362;-6.240;2023-04-06T02:40:13;101372.09;;;9.92;68.39
64336;BME280;50672;53.362;-6.240;2023-04-06T02:42:40;101368.81;;;9.89;68.04
64336;BME280;50672;53.362;-6.240;2023-04-06T02:45:07;101377.84;;;9.89;68.30
64336;BME280;50672;53.362;-6.240;2023-04-06T02:47:34;101368.66;;;9.90;68.32
64336;BME280;50672;53.362;-6.240;2023-04-06T02:50:01;101369.69;;;9.89;68.25
64336;BME280;50672;53.362;-6.240;2023-04-06T02:52:28;101375.81;;;9.91;68.04
64336;BME280;50672;53.362;-6.240;2023-04-06T02:54:55;101378.53;;;9.91;68.00
64336;BME280;50672;53.362;-6.240;2023-04-06T02:57:22;101381.41;;;9.90;68.31
64336;BME280;50672;53.362;-6.240;2023-04-06T02:59:49;101380.72;;;9.88;68.35
64336;BME280;50672;53.362;-6.240;2023-04-06T03:02:15;101383.28;;;9.89;68.23
64336;BME280;50672;53.362;-6.240;2023-04-06T03:04:43;101379.84;;;9.87;68.20
64336;BME280;50672;53.362;-6.240;2023-04-06T03:07:10;101372.69;;;9.86;68.07
64336;BME280;50672;53.362;-6.240;2023-04-06T03:09:37;101376.47;;;9.85;68.12
64336;BME280;50672;53.362;-6.240;2023-04-06T03:12:05;101374.75;;;9.84;68.12
64336;BME280;50672;53.362;-6.240;2023-04-06T03:14:35;101372.19;;;9.83;68.31
64336;BME280;50672;53.362;-6.240;2023-04-06T03:17:02;101370.63;;;9.80;68.28
64336;BME280;50672;53.362;-6.240;2023-04-06T03:19:29;101370.06;;;9.77;68.33
64336;BME280;50672;53.362;-6.240;2023-04-06T03:21:55;101370.22;;;9.75;68.20
64336;BME280;50672;53.362;-6.240;2023-04-06T03:24:22;101378.69;;;9.72;68.33
64336;BME280;50672;53.362;-6.240;2023-04-06T03:26:49;101373.56;;;9.69;68.23
64336;BME280;50672;53.362;-6.240;2023-04-06T03:29:16;101370.28;;;9.65;68.15
64336;BME280;50672;53.362;-6.240;2023-04-06T03:31:43;101368.88;;;9.61;68.30
64336;BME280;50672;53.362;-6.240;2023-04-06T03:34:10;101382.63;;;9.60;68.41
64336;BME280;50672;53.362;-6.240;2023-04-06T03:36:36;101362.22;;;9.55;68.52
64336;BME280;50672;53.362;-6.240;2023-04-06T03:39:04;101366.09;;;9.53;68.65
64336;BME280;50672;53.362;-6.240;2023-04-06T03:41:31;101371.69;;;9.51;68.61
64336;BME280;50672;53.362;-6.240;2023-04-06T03:43:58;101371.00;;;9.49;68.61
64336;BME280;50672;53.362;-6.240;2023-04-06T03:46:25;101371.31;;;9.46;68.77
64336;BME280;50672;53.362;-6.240;2023-04-06T03:48:52;101371.47;;;9.45;69.01
64336;BME280;50672;53.362;-6.240;2023-04-06T03:51:18;101375.34;;;9.42;68.86
64336;BME280;50672;53.362;-6.240;2023-04-06T03:53:45;101373.63;;;9.41;68.91
64336;BME280;50672;53.362;-6.240;2023-04-06T03:56:12;101371.91;;;9.40;69.19
64336;BME280;50672;53.362;-6.240;2023-04-06T03:58:39;101381.03;;;9.39;69.34
64336;BME280;50672;53.362;-6.240;2023-04-06T04:01:06;101384.63;;;9.39;69.30
64336;BME280;50672;53.362;-6.240;2023-04-06T04:03:32;101381.03;;;9.39;69.50
64336;BME280;50672;53.362;-6.240;2023-04-06T04:05:59;101386.47;;;9.39;69.61
64336;BME280;50672;53.362;-6.240;2023-04-06T04:08:26;101382.22;;;9.36;69.80
64336;BME280;50672;53.362;-6.240;2023-04-06T04:10:53;101381.66;;;9.33;70.01
64336;BME280;50672;53.362;-6.240;2023-04-06T04:13:20;101380.81;;;9.32;69.92
64336;BME280;50672;53.362;-6.240;2023-04-06T04:15:46;101382.50;;;9.33;70.13
64336;BME280;50672;53.362;-6.240;2023-04-06T04:18:14;101383.53;;;9.32;70.49
64336;BME280;50672;53.362;-6.240;2023-04-06T04:20:41;101387.09;;;9.33;70.75
64336;BME280;50672;53.362;-6.240;2023-04-06T04:23:08;101387.41;;;9.30;70.71
64336;BME280;50672;53.362;-6.240;2023-04-06T04:25:35;101390.28;;;9.28;70.97
64336;BME280;50672;53.362;-6.240;2023-04-06T04:28:02;101382.28;;;9.27;71.33
64336;BME280;50672;53.362;-6.240;2023-04-06T04:30:29;101376.84;;;9.27;71.31
64336;BME280;50672;53.362;-6.240;2023-04-06T04:32:56;101386.16;;;9.24;71.38
64336;BME280;50672;53.362;-6.240;2023-04-06T04:35:23;101377.28;;;9.22;71.75
64336;BME280;50672;53.362;-6.240;2023-04-06T04:37:49;101386.59;;;9.19;71.70
64336;BME280;50672;53.362;-6.240;2023-04-06T04:40:16;101383.75;;;9.21;71.76
64336;BME280;50672;53.362;-6.240;2023-04-06T04:42:43;101393.75;;;9.20;71.70
64336;BME280;50672;53.362;-6.240;2023-04-06T04:45:11;101395.47;;;9.21;72.11
64336;BME280;50672;53.362;-6.240;2023-04-06T04:47:38;101399.00;;;9.22;72.14
64336;BME280;50672;53.362;-6.240;2023-04-06T04:50:05;101406.16;;;9.23;72.48
64336;BME280;50672;53.362;-6.240;2023-04-06T04:52:32;101405.03;;;9.26;72.68
64336;BME280;50672;53.362;-6.240;2023-04-06T04:54:59;101402.31;;;9.26;72.81
64336;BME280;50672;53.362;-6.240;2023-04-06T04:57:25;101406.00;;;9.24;72.84
64336;BME280;50672;53.362;-6.240;2023-04-06T04:59:52;101401.72;;;9.22;72.74
64336;BME280;50672;53.362;-6.240;2023-04-06T05:02:23;101406.47;;;9.20;72.74
64336;BME280;50672;53.362;-6.240;2023-04-06T05:04:50;101403.19;;;9.16;72.97
64336;BME280;50672;53.362;-6.240;2023-04-06T05:07:17;101406.53;;;9.10;72.85
64336;BME280;50672;53.362;-6.240;2023-04-06T05:09:45;101406.09;;;9.05;73.13
64336;BME280;50672;53.362;-6.240;2023-04-06T05:12:12;101411.84;;;9.02;73.09
64336;BME280;50672;53.362;-6.240;2023-04-06T05:14:39;101411.28;;;8.98;73.21
64336;BME280;50672;53.362;-6.240;2023-04-06T05:17:06;101418.00;;;8.94;73.04
64336;BME280;50672;53.362;-6.240;2023-04-06T05:19:32;101414.44;;;8.94;73.16
64336;BME280;50672;53.362;-6.240;2023-04-06T05:21:59;101420.72;;;8.94;72.95
64336;BME280;50672;53.362;-6.240;2023-04-06T05:24:26;101426.16;;;8.94;73.22
64336;BME280;50672;53.362;-6.240;2023-04-06T05:26:53;101424.31;;;8.95;73.11
64336;BME280;50672;53.362;-6.240;2023-04-06T05:29:20;101427.72;;;8.97;73.04
64336;BME280;50672;53.362;-6.240;2023-04-06T05:31:47;101430.28;;;8.98;73.37
64336;BME280;50672;53.362;-6.240;2023-04-06T05:34:14;101434.03;;;8.97;73.16
64336;BME280;50672;53.362;-6.240;2023-04-06T05:36:41;101436.59;;;8.99;73.44
64336;BME280;50672;53.362;-6.240;2023-04-06T05:39:08;101435.84;;;8.97;73.45
64336;BME280;50672;53.362;-6.240;2023-04-06T05:41:35;101435.03;;;8.96;73.60
64336;BME280;50672;53.362;-6.240;2023-04-06T05:44:02;101436.84;;;8.96;73.68
64336;BME280;50672;53.362;-6.240;2023-04-06T05:46:29;101442.28;;;8.96;73.65
64336;BME280;50672;53.362;-6.240;2023-04-06T05:48:56;101433.28;;;8.95;74.00
64336;BME280;50672;53.362;-6.240;2023-04-06T05:51:22;101436.84;;;8.96;74.01
64336;BME280;50672;53.362;-6.240;2023-04-06T05:53:49;101443.69;;;9.00;74.00
64336;BME280;50672;53.362;-6.240;2023-04-06T05:56:16;101441.00;;;9.00;74.39
64336;BME280;50672;53.362;-6.240;2023-04-06T05:58:43;101442.72;;;9.01;74.46
64336;BME280;50672;53.362;-6.240;2023-04-06T06:01:10;101453.56;;;9.01;74.64
64336;BME280;50672;53.362;-6.240;2023-04-06T06:03:37;101450.84;;;9.01;74.76
64336;BME280;50672;53.362;-6.240;2023-04-06T06:06:05;101445.84;;;9.06;74.69
64336;BME280;50672;53.362;-6.240;2023-04-06T06:08:32;101457.56;;;9.06;75.12
64336;BME280;50672;53.362;-6.240;2023-04-06T06:10:59;101462.84;;;9.08;75.25
64336;BME280;50672;53.362;-6.240;2023-04-06T06:13:26;101462.84;;;9.08;75.22
64336;BME280;50672;53.362;-6.240;2023-04-06T06:15:53;101459.28;;;9.07;75.57
64336;BME280;50672;53.362;-6.240;2023-04-06T06:18:22;101459.97;;;9.10;75.48
64336;BME280;50672;53.362;-6.240;2023-04-06T06:20:49;101461.00;;;9.09;75.70
64336;BME280;50672;53.362;-6.240;2023-04-06T06:23:16;101473.00;;;9.06;75.88
64336;BME280;50672;53.362;-6.240;2023-04-06T06:25:43;101473.00;;;9.06;75.81
64336;BME280;50672;53.362;-6.240;2023-04-06T06:28:10;101472.84;;;9.07;76.25
64336;BME280;50672;53.362;-6.240;2023-04-06T06:30:36;101478.13;;;9.09;76.28
64336;BME280;50672;53.362;-6.240;2023-04-06T06:33:03;101485.59;;;9.07;76.24
64336;BME280;50672;53.362;-6.240;2023-04-06T06:35:30;101485.84;;;9.04;76.57
64336;BME280;50672;53.362;-6.240;2023-04-06T06:37:57;101491.88;;;8.98;76.47
64336;BME280;50672;53.362;-6.240;2023-04-06T06:40:24;101493.19;;;8.94;76.66
64336;BME280;50672;53.362;-6.240;2023-04-06T06:42:50;101496.91;;;8.93;76.82
64336;BME280;50672;53.362;-6.240;2023-04-06T06:45:18;101495.16;;;8.92;76.62
64336;BME280;50672;53.362;-6.240;2023-04-06T06:47:45;101489.88;;;8.90;76.85
64336;BME280;50672;53.362;-6.240;2023-04-06T06:50:12;101490.63;;;8.92;77.06
64336;BME280;50672;53.362;-6.240;2023-04-06T06:52:39;101494.91;;;8.95;77.11
64336;BME280;50672;53.362;-6.240;2023-04-06T06:55:09;101499.31;;;8.96;77.17
64336;BME280;50672;53.362;-6.240;2023-04-06T06:57:36;101498.16;;;8.98;77.28
64336;BME280;50672;53.362;-6.240;2023-04-06T07:00:03;101499.88;;;8.99;77.35
64336;BME280;50672;53.362;-6.240;2023-04-06T07:02:34;101499.72;;;9.01;77.30
64336;BME280;50672;53.362;-6.240;2023-04-06T07:05:02;101505.44;;;9.07;77.40
64336;BME280;50672;53.362;-6.240;2023-04-06T07:07:50;101508.13;;;9.17;77.16
64336;BME280;50672;53.362;-6.240;2023-04-06T07:10:16;101508.56;;;9.22;77.39
64336;BME280;50672;53.362;-6.240;2023-04-06T07:12:43;101496.38;;;9.27;77.20
64336;BME280;50672;53.362;-6.240;2023-04-06T07:15:10;101506.03;;;9.39;77.21
64336;BME280;50672;53.362;-6.240;2023-04-06T07:17:37;101514.28;;;9.47;77.28
64336;BME280;50672;53.362;-6.240;2023-04-06T07:20:04;101512.00;;;9.52;77.08
64336;BME280;50672;53.362;-6.240;2023-04-06T07:22:31;101512.25;;;9.59;77.02
64336;BME280;50672;53.362;-6.240;2023-04-06T07:24:58;101518.53;;;9.60;76.98
64336;BME280;50672;53.362;-6.240;2023-04-06T07:27:25;101516.28;;;9.55;76.58
64336;BME280;50672;53.362;-6.240;2023-04-06T07:29:52;101528.31;;;9.52;76.53
64336;BME280;50672;53.362;-6.240;2023-04-06T07:32:19;101522.19;;;9.50;76.44
64336;BME280;50672;53.362;-6.240;2023-04-06T07:34:46;101525.16;;;9.47;76.54
64336;BME280;50672;53.362;-6.240;2023-04-06T07:37:13;101531.06;;;9.43;76.57
64336;BME280;50672;53.362;-6.240;2023-04-06T07:39:40;101527.22;;;9.35;76.64
64336;BME280;50672;53.362;-6.240;2023-04-06T07:42:07;101535.69;;;9.32;76.53
64336;BME280;50672;53.362;-6.240;2023-04-06T07:44:34;101531.41;;;9.30;76.56
64336;BME280;50672;53.362;-6.240;2023-04-06T07:47:00;101532.50;;;9.37;76.37
64336;BME280;50672;53.362;-6.240;2023-04-06T07:49:28;101534.63;;;9.43;76.76
64336;BME280;50672;53.362;-6.240;2023-04-06T07:51:55;101538.75;;;9.47;76.46
64336;BME280;50672;53.362;-6.240;2023-04-06T07:54:22;101533.88;;;9.51;76.70
64336;BME280;50672;53.362;-6.240;2023-04-06T07:56:49;101536.88;;;9.57;76.36
64336;BME280;50672;53.362;-6.240;2023-04-06T07:59:16;101534.16;;;9.57;76.37
64336;BME280;50672;53.362;-6.240;2023-04-06T08:01:42;101542.00;;;9.61;76.61
64336;BME280;50672;53.362;-6.240;2023-04-06T08:04:09;101540.69;;;9.65;76.47
64336;BME280;50672;53.362;-6.240;2023-04-06T08:06:37;101540.50;;;9.76;76.64
64336;BME280;50672;53.362;-6.240;2023-04-06T08:09:03;101544.69;;;9.98;76.31
64336;BME280;50672;53.362;-6.240;2023-04-06T08:11:30;101547.19;;;10.09;76.20
64336;BME280;50672;53.362;-6.240;2023-04-06T08:13:57;101549.06;;;10.09;76.38
64336;BME280;50672;53.362;-6.240;2023-04-06T08:16:24;101551.88;;;10.17;76.23
64336;BME280;50672;53.362;-6.240;2023-04-06T08:18:51;101553.28;;;10.21;76.15
64336;BME280;50672;53.362;-6.240;2023-04-06T08:21:18;101552.50;;;10.29;75.75
64336;BME280;50672;53.362;-6.240;2023-04-06T08:23:44;101561.09;;;10.34;75.65
64336;BME280;50672;53.362;-6.240;2023-04-06T08:26:12;101560.50;;;10.31;75.32
64336;BME280;50672;53.362;-6.240;2023-04-06T08:28:39;101561.38;;;10.31;75.59
64336;BME280;50672;53.362;-6.240;2023-04-06T08:31:06;101561.94;;;10.35;75.21
64336;BME280;50672;53.362;-6.240;2023-04-06T08:33:33;101570.50;;;10.40;74.85
64336;BME280;50672;53.362;-6.240;2023-04-06T08:36:09;101561.94;;;10.35;74.59
64336;BME280;50672;53.362;-6.240;2023-04-06T08:38:36;101567.22;;;10.36;74.55
64336;BME280;50672;53.362;-6.240;2023-04-06T08:41:10;101571.50;;;10.39;74.65
64336;BME280;50672;53.362;-6.240;2023-04-06T08:43:43;101572.44;;;10.48;74.27
64336;BME280;50672;53.362;-6.240;2023-04-06T08:46:11;101565.38;;;10.55;74.12
64336;BME280;50672;53.362;-6.240;2023-04-06T08:48:40;101573.47;;;10.65;73.96
64336;BME280;50672;53.362;-6.240;2023-04-06T08:51:09;101571.53;;;10.75;73.76
64336;BME280;50672;53.362;-6.240;2023-04-06T08:53:36;101582.25;;;10.76;73.51
64336;BME280;50672;53.362;-6.240;2023-04-06T08:56:04;101580.78;;;10.82;73.05
64336;BME280;50672;53.362;-6.240;2023-04-06T08:58:37;101584.56;;;10.89;73.16
64336;BME280;50672;53.362;-6.240;2023-04-06T09:01:09;101589.78;;;11.01;72.63
64336;BME280;50672;53.362;-6.240;2023-04-06T09:03:39;101589.16;;;11.07;72.58
64336;BME280;50672;53.362;-6.240;2023-04-06T09:06:27;101593.50;;;11.18;71.96
64336;BME280;50672;53.362;-6.240;2023-04-06T09:09:34;101598.78;;;11.19;71.45
64336;BME280;50672;53.362;-6.240;2023-04-06T09:12:00;101604.91;;;11.21;70.80
64336;BME280;50672;53.362;-6.240;2023-04-06T09:14:38;101601.72;;;11.26;70.59
64336;BME280;50672;53.362;-6.240;2023-04-06T09:17:06;101605.81;;;11.30;70.38
64336;BME280;50672;53.362;-6.240;2023-04-06T09:19:32;101611.16;;;11.32;70.49
64336;BME280;50672;53.362;-6.240;2023-04-06T09:22:03;101609.28;;;11.32;69.84
64336;BME280;50672;53.362;-6.240;2023-04-06T09:24:48;101611.66;;;11.35;69.57
64336;BME280;50672;53.362;-6.240;2023-04-06T09:27:15;101614.50;;;11.52;69.70
64336;BME280;50672;53.362;-6.240;2023-04-06T09:29:43;101626.66;;;11.57;68.94
64336;BME280;50672;53.362;-6.240;2023-04-06T09:32:11;101628.56;;;11.65;68.65
64336;BME280;50672;53.362;-6.240;2023-04-06T09:34:38;101633.00;;;11.66;68.51
64336;BME280;50672;53.362;-6.240;2023-04-06T09:37:16;101635.44;;;11.77;68.09
64336;BME280;50672;53.362;-6.240;2023-04-06T09:39:45;101638.59;;;11.91;68.21
64336;BME280;50672;53.362;-6.240;2023-04-06T09:42:25;101640.03;;;11.95;67.91
64336;BME280;50672;53.362;-6.240;2023-04-06T09:44:52;101645.41;;;11.87;67.51
64336;BME280;50672;53.362;-6.240;2023-04-06T09:47:19;101644.66;;;11.76;67.07
64336;BME280;50672;53.362;-6.240;2023-04-06T09:49:48;101654.59;;;11.59;67.21
64336;BME280;50672;53.362;-6.240;2023-04-06T09:52:17;101651.44;;;11.46;66.90
64336;BME280;50672;53.362;-6.240;2023-04-06T09:54:46;101657.63;;;11.30;66.50
64336;BME280;50672;53.362;-6.240;2023-04-06T09:59:58;101665.75;;;11.04;66.29
64336;BME280;50672;53.362;-6.240;2023-04-06T10:02:39;101659.19;;;11.15;65.84
64336;BME280;50672;53.362;-6.240;2023-04-06T10:05:09;101657.91;;;11.45;65.65
64336;BME280;50672;53.362;-6.240;2023-04-06T10:07:36;101662.94;;;11.58;65.99
64336;BME280;50672;53.362;-6.240;2023-04-06T10:10:15;101659.03;;;11.60;65.63
64336;BME280;50672;53.362;-6.240;2023-04-06T10:12:44;101662.84;;;11.68;65.04
64336;BME280;50672;53.362;-6.240;2023-04-06T10:15:11;101651.44;;;11.99;64.80
64336;BME280;50672;53.362;-6.240;2023-04-06T10:17:38;101661.97;;;11.93;64.61
64336;BME280;50672;53.362;-6.240;2023-04-06T10:20:25;101663.81;;;11.85;64.07
64336;BME280;50672;53.362;-6.240;2023-04-06T10:23:08;101671.59;;;11.98;63.63
64336;BME280;50672;53.362;-6.240;2023-04-06T10:25:37;101673.06;;;12.26;63.29
64336;BME280;50672;53.362;-6.240;2023-04-06T10:28:08;101662.59;;;12.48;62.72
64336;BME280;50672;53.362;-6.240;2023-04-06T10:30:41;101676.78;;;12.60;62.34
64336;BME280;50672;53.362;-6.240;2023-04-06T10:33:18;101676.28;;;12.64;62.08
64336;BME280;50672;53.362;-6.240;2023-04-06T10:35:46;101681.91;;;12.55;61.50
64336;BME280;50672;53.362;-6.240;2023-04-06T10:38:13;101678.47;;;12.53;61.01
64336;BME280;50672;53.362;-6.240;2023-04-06T10:40:42;101686.16;;;12.49;60.73
64336;BME280;50672;53.362;-6.240;2023-04-06T10:43:20;101690.13;;;12.63;60.61
64336;BME280;50672;53.362;-6.240;2023-04-06T10:45:59;101685.84;;;12.60;59.92
64336;BME280;50672;53.362;-6.240;2023-04-06T10:48:44;101686.41;;;12.80;60.00
64336;BME280;50672;53.362;-6.240;2023-04-06T10:51:15;101685.09;;;13.18;59.45
64336;BME280;50672;53.362;-6.240;2023-04-06T10:53:44;101684.41;;;13.32;59.14
64336;BME280;50672;53.362;-6.240;2023-04-06T10:56:14;101688.50;;;13.20;58.37
64336;BME280;50672;53.362;-6.240;2023-04-06T10:58:48;101684.38;;;12.91;57.80
64336;BME280;50672;53.362;-6.240;2023-04-06T11:01:16;101695.09;;;12.76;57.84
64336;BME280;50672;53.362;-6.240;2023-04-06T11:03:47;101690.00;;;12.97;57.18
64336;BME280;50672;53.362;-6.240;2023-04-06T11:06:22;101686.66;;;13.45;56.66
64336;BME280;50672;53.362;-6.240;2023-04-06T11:08:50;101695.56;;;13.39;56.50
64336;BME280;50672;53.362;-6.240;2023-04-06T11:11:19;101691.06;;;13.21;55.89
64336;BME280;50672;53.362;-6.240;2023-04-06T11:13:57;101700.47;;;13.02;55.90
64336;BME280;50672;53.362;-6.240;2023-04-06T11:16:27;101698.94;;;13.24;55.25
64336;BME280;50672;53.362;-6.240;2023-04-06T11:18:59;101703.22;;;13.84;55.23
64336;BME280;50672;53.362;-6.240;2023-04-06T11:21:39;101696.69;;;13.85;54.62
64336;BME280;50672;53.362;-6.240;2023-04-06T11:26:55;101708.63;;;14.09;53.83
64336;BME280;50672;53.362;-6.240;2023-04-06T11:29:25;101700.88;;;14.21;53.28
64336;BME280;50672;53.362;-6.240;2023-04-06T11:31:58;101704.78;;;14.35;52.62
64336;BME280;50672;53.362;-6.240;2023-04-06T11:34:27;101698.59;;;14.81;52.46
64336;BME280;50672;53.362;-6.240;2023-04-06T11:36:56;101695.13;;;15.33;51.79
64336;BME280;50672;53.362;-6.240;2023-04-06T11:39:24;101693.31;;;15.49;51.34
64336;BME280;50672;53.362;-6.240;2023-04-06T11:41:54;101696.44;;;15.23;51.03
64336;BME280;50672;53.362;-6.240;2023-04-06T11:44:38;101704.97;;;14.73;50.94
64336;BME280;50672;53.362;-6.240;2023-04-06T11:47:07;101704.97;;;14.33;50.93
64336;BME280;50672;53.362;-6.240;2023-04-06T11:49:42;101704.66;;;14.20;50.83
64336;BME280;50672;53.362;-6.240;2023-04-06T11:52:19;101717.25;;;14.85;50.71
64336;BME280;50672;53.362;-6.240;2023-04-06T11:54:47;101710.94;;;15.31;50.39
64336;BME280;50672;53.362;-6.240;2023-04-06T11:57:15;101699.00;;;15.85;50.08
64336;BME280;50672;53.362;-6.240;2023-04-06T11:59:42;101708.41;;;16.87;49.42
64336;BME280;50672;53.362;-6.240;2023-04-06T12:02:09;101707.94;;;17.92;48.60
64336;BME280;50672;53.362;-6.240;2023-04-06T12:04:37;101705.09;;;18.49;47.82
64336;BME280;50672;53.362;-6.240;2023-04-06T12:07:04;101715.34;;;19.37;46.69
64336;BME280;50672;53.362;-6.240;2023-04-06T12:09:32;101709.84;;;19.63;45.71
64336;BME280;50672;53.362;-6.240;2023-04-06T12:11:58;101714.72;;;18.24;44.67
64336;BME280;50672;53.362;-6.240;2023-04-06T12:14:25;101714.47;;;17.63;44.46
64336;BME280;50672;53.362;-6.240;2023-04-06T12:16:52;101714.53;;;17.26;43.87
64336;BME280;50672;53.362;-6.240;2023-04-06T12:19:19;101718.59;;;16.72;43.86
64336;BME280;50672;53.362;-6.240;2023-04-06T12:21:46;101715.78;;;16.35;43.85
64336;BME280;50672;53.362;-6.240;2023-04-06T12:24:13;101715.88;;;16.12;43.91
64336;BME280;50672;53.362;-6.240;2023-04-06T12:26:40;101717.94;;;17.06;43.80
64336;BME280;50672;53.362;-6.240;2023-04-06T12:29:07;101707.59;;;17.30;43.81
64336;BME280;50672;53.362;-6.240;2023-04-06T12:31:35;101706.56;;;18.93;43.45
64336;BME280;50672;53.362;-6.240;2023-04-06T12:34:03;101709.16;;;19.15;42.72
64336;BME280;50672;53.362;-6.240;2023-04-06T12:36:30;101716.34;;;18.12;42.30
64336;BME280;50672;53.362;-6.240;2023-04-06T12:38:58;101712.09;;;17.59;42.43
64336;BME280;50672;53.362;-6.240;2023-04-06T12:41:25;101713.72;;;18.32;42.13
64336;BME280;50672;53.362;-6.240;2023-04-06T12:43:52;101722.28;;;20.40;41.25
64336;BME280;50672;53.362;-6.240;2023-04-06T12:46:19;101715.81;;;22.19;40.09
64336;BME280;50672;53.362;-6.240;2023-04-06T12:48:46;101712.66;;;23.74;38.62
64336;BME280;50672;53.362;-6.240;2023-04-06T12:51:13;101715.66;;;25.42;37.34
64336;BME280;50672;53.362;-6.240;2023-04-06T12:53:40;101713.75;;;26.33;36.49
64336;BME280;50672;53.362;-6.240;2023-04-06T12:56:14;101714.09;;;25.80;35.32